ECG weather

Enrique Cardenaz Gonzalez Airport
Valle Hermoso, Tamaulipas, Mexico

Public forecast

Using degrees Celsius for public forecast. Weather courtesy of forecast.io.

Closest aviation weather report (METAR) to Enrique Cardenaz Gonzalez Airport

Closest report is General Servando Canales International Airport, 18.2 nm (33.8 km) ENE. Retrieved 2019/10/19 19:40 UTC (0 seconds ago):

MMMA 191940Z 15008KT 8SM OVC020CB 31/24 A2973 RMK 8/3// BINOVC

Closest aviation forecast (TAF) to Enrique Cardenaz Gonzalez Airport

Closest forecast is General Servando Canales International Airport, 18.2 nm (33.8 km) ENE. Retrieved 2019/10/19 18:28 UTC (35 minutes ago):

TAF MMMA 191721Z 1918/2018 16012KT P6SM BKN020CB FM192200 14012KT P6SM SCT030 FM201500 12015KT P6SM BKN020